Time;durP1;ratioP1;P1;durP2;ratioP2;P2;SDS_P1;SDS_P2;PMS_P1;PMS_P2;Temp;Humidity;BMP_temperature;BMP_pressure;BME280_temperature;BME280_humidity;BME280_pressure;Samples;Min_cycle;Max_cycle;Signal;HPM_P1;HPM_P2
2023/07/26 00:00:34;;;;;;;5.60;1.60;;;13.50;99.90;;;;;;5071079;28;20044;-70
2023/07/26 00:03:00;;;;;;;2.58;1.50;;;13.60;99.90;;;;;;5071015;28;20047;-69
2023/07/26 00:05:26;;;;;;;3.70;1.65;;;13.50;99.90;;;;;;5055704;28;20041;-69
2023/07/26 00:07:51;;;;;;;4.30;1.70;;;13.50;99.90;;;;;;5074712;28;20068;-69
2023/07/26 00:10:17;;;;;;;4.45;1.63;;;13.60;99.90;;;;;;5074799;28;20522;-70
2023/07/26 00:12:42;;;;;;;3.42;2.05;;;13.60;99.90;;;;;;5074839;28;20472;-70
2023/07/26 00:15:09;;;;;;;5.60;2.00;;;13.60;99.90;;;;;;5074913;28;20042;-70
2023/07/26 00:17:34;;;;;;;3.78;1.70;;;13.40;99.90;;;;;;5039797;28;20040;-70
2023/07/26 00:20:00;;;;;;;2.58;1.40;;;13.50;99.90;;;;;;5074917;28;20032;-70
2023/07/26 00:22:25;;;;;;;2.53;1.58;;;13.50;99.90;;;;;;5056930;28;20507;-70
2023/07/26 00:24:51;;;;;;;4.68;1.58;;;13.50;99.90;;;;;;5057019;28;20542;-69
2023/07/26 00:27:17;;;;;;;3.80;2.22;;;13.60;99.90;;;;;;5056401;28;20519;-70
2023/07/26 00:29:43;;;;;;;4.22;1.80;;;13.50;99.90;;;;;;5074550;28;20389;-70
2023/07/26 00:32:08;;;;;;;6.90;2.00;;;13.50;99.90;;;;;;5074499;28;20037;-70
2023/07/26 00:34:35;;;;;;;4.60;1.98;;;13.60;99.90;;;;;;5056602;28;20510;-69
2023/07/26 00:37:03;;;;;;;3.60;2.00;;;13.50;99.90;;;;;;5074329;28;20055;-69
2023/07/26 00:39:30;;;;;;;3.38;2.10;;;13.50;99.90;;;;;;5074268;28;20452;-70
2023/07/26 00:41:55;;;;;;;5.00;2.50;;;13.60;99.90;;;;;;5074332;28;20036;-70
2023/07/26 00:44:21;;;;;;;3.33;2.05;;;13.60;99.90;;;;;;5074330;28;20082;-70
2023/07/26 00:46:47;;;;;;;6.13;2.70;;;13.60;99.90;;;;;;5073937;28;20519;-69
2023/07/26 00:49:12;;;;;;;4.40;2.35;;;13.50;99.90;;;;;;5056522;28;20419;-69
2023/07/26 00:51:38;;;;;;;4.50;2.20;;;13.50;99.90;;;;;;5074249;28;20043;-70
2023/07/26 00:54:06;;;;;;;6.05;2.30;;;13.60;99.90;;;;;;5056152;28;20079;-69
2023/07/26 00:56:31;;;;;;;6.13;2.40;;;13.50;99.90;;;;;;5073865;28;20047;-69
2023/07/26 00:58:58;;;;;;;4.70;2.05;;;13.60;99.90;;;;;;5074022;28;20123;-69
2023/07/26 01:01:24;;;;;;;6.13;2.30;;;13.60;99.90;;;;;;5039190;28;20048;-69
2023/07/26 01:03:49;;;;;;;3.60;2.22;;;13.50;99.90;;;;;;5056298;28;20047;-69
2023/07/26 01:06:29;;;;;;;3.88;2.30;;;13.40;99.90;;;;;;5073931;28;20037;-70
2023/07/26 01:09:27;;;;;;;6.15;2.47;;;13.60;99.90;;;;;;5073818;28;20599;-70
2023/07/26 01:12:05;;;;;;;3.45;2.20;;;13.40;99.90;;;;;;5073629;28;20037;-69
2023/07/26 01:14:41;;;;;;;6.13;2.28;;;13.40;99.90;;;;;;5073972;28;20040;-70
2023/07/26 01:17:07;;;;;;;5.88;2.20;;;13.50;99.90;;;;;;5055310;28;20044;-70
2023/07/26 01:19:33;;;;;;;5.63;2.22;;;13.50;99.90;;;;;;5055608;28;20044;-69
2023/07/26 01:21:59;;;;;;;3.97;2.50;;;13.50;99.90;;;;;;5055741;28;20040;-70
2023/07/26 01:24:25;;;;;;;4.47;2.13;;;13.50;99.90;;;;;;5073784;28;20097;-70
2023/07/26 01:26:50;;;;;;;4.25;2.05;;;13.60;99.90;;;;;;5073409;28;20028;-69
2023/07/26 01:29:16;;;;;;;4.32;2.30;;;13.60;99.90;;;;;;5073515;28;20047;-70
2023/07/26 01:31:41;;;;;;;3.88;2.42;;;13.40;99.90;;;;;;5055520;28;20056;-69
2023/07/26 01:34:09;;;;;;;5.47;2.65;;;13.60;99.90;;;;;;5073453;28;20044;-69
2023/07/26 01:36:34;;;;;;;6.65;2.95;;;13.50;99.90;;;;;;5072982;28;20056;-69
2023/07/26 01:39:02;;;;;;;4.82;2.33;;;13.50;99.90;;;;;;5073158;28;20040;-69
2023/07/26 01:41:29;;;;;;;5.43;2.47;;;13.40;99.90;;;;;;5055377;28;20137;-69
2023/07/26 01:43:55;;;;;;;6.40;2.50;;;13.50;99.90;;;;;;5073349;28;20083;-69
2023/07/26 01:46:20;;;;;;;4.55;1.98;;;13.40;99.90;;;;;;5072996;28;20082;-69
2023/07/26 01:48:46;;;;;;;5.00;2.47;;;13.50;99.90;;;;;;5073115;28;20036;-70
2023/07/26 01:51:12;;;;;;;3.72;2.22;;;13.50;99.90;;;;;;5055195;28;20044;-70
2023/07/26 01:53:37;;;;;;;3.25;1.88;;;13.40;99.90;;;;;;5073200;28;20032;-69
2023/07/26 01:56:03;;;;;;;4.80;2.38;;;13.30;99.90;;;;;;5073010;28;20673;-69
2023/07/26 01:58:29;;;;;;;4.68;2.53;;;13.50;99.90;;;;;;5072688;28;20094;-69
2023/07/26 02:00:54;;;;;;;2.80;1.83;;;13.30;99.90;;;;;;5072830;28;20032;-69
2023/07/26 02:03:20;;;;;;;4.13;2.40;;;13.30;99.90;;;;;;5054934;28;20033;-69
2023/07/26 02:05:47;;;;;;;6.03;2.58;;;13.40;99.90;;;;;;5072655;28;20515;-70
2023/07/26 02:08:13;;;;;;;5.95;2.20;;;13.20;99.90;;;;;;5054436;28;20059;-70
2023/07/26 02:10:40;;;;;;;3.00;2.20;;;13.40;99.90;;;;;;5054832;28;20067;-70
2023/07/26 02:13:05;;;;;;;4.43;2.33;;;13.30;99.90;;;;;;5054771;28;20131;-69
2023/07/26 02:15:31;;;;;;;3.65;2.05;;;13.30;99.90;;;;;;5072669;28;20128;-69
2023/07/26 02:17:57;;;;;;;3.63;2.30;;;13.30;99.90;;;;;;5072340;28;20043;-69
2023/07/26 02:20:23;;;;;;;4.63;2.67;;;13.20;99.90;;;;;;5072273;28;20435;-70
2023/07/26 02:22:49;;;;;;;4.20;2.28;;;13.10;99.90;;;;;;5072321;28;20040;-69
2023/07/26 02:25:15;;;;;;;6.15;2.50;;;13.10;99.90;;;;;;5054412;28;20052;-70
2023/07/26 02:27:40;;;;;;;6.10;3.10;;;13.10;99.90;;;;;;5071644;28;20502;-69
2023/07/26 02:30:06;;;;;;;3.63;2.40;;;13.00;99.90;;;;;;5072287;28;20523;-70
2023/07/26 02:32:32;;;;;;;4.53;2.60;;;13.10;99.90;;;;;;5072273;28;20048;-69
2023/07/26 02:34:58;;;;;;;6.90;3.03;;;13.10;99.90;;;;;;5054166;28;20128;-70
2023/07/26 02:37:23;;;;;;;5.95;2.83;;;12.90;99.90;;;;;;5054185;28;20040;-70
2023/07/26 02:39:50;;;;;;;7.68;3.22;;;12.90;99.90;;;;;;5054406;28;20563;-69
2023/07/26 02:42:16;;;;;;;6.07;3.10;;;13.00;99.90;;;;;;5054275;28;20052;-69
2023/07/26 02:44:42;;;;;;;6.35;3.05;;;13.00;99.90;;;;;;5072134;28;20514;-69
2023/07/26 02:47:07;;;;;;;6.63;3.95;;;12.80;99.90;;;;;;5053785;28;20082;-69
2023/07/26 02:49:33;;;;;;;8.25;3.65;;;12.80;99.90;;;;;;5053886;28;20036;-69
2023/07/26 02:51:58;;;;;;;6.30;3.58;;;13.00;99.90;;;;;;5054003;28;20049;-69
2023/07/26 02:54:24;;;;;;;5.10;3.30;;;13.00;99.90;;;;;;5072132;28;20166;-70
2023/07/26 02:56:50;;;;;;;7.40;3.67;;;12.70;99.90;;;;;;5071735;28;20036;-69
2023/07/26 02:59:15;;;;;;;5.38;3.30;;;12.80;99.90;;;;;;5071737;28;20080;-69
2023/07/26 03:01:41;;;;;;;8.48;3.80;;;12.90;99.90;;;;;;5053813;28;20037;-70
2023/07/26 03:04:06;;;;;;;5.22;3.55;;;12.90;99.90;;;;;;5071753;28;20032;-69
2023/07/26 03:06:32;;;;;;;8.73;3.78;;;12.80;99.90;;;;;;5071403;28;20124;-70
2023/07/26 03:08:57;;;;;;;7.68;3.55;;;12.80;99.90;;;;;;5053741;28;20037;-69
2023/07/26 03:11:23;;;;;;;7.00;4.53;;;12.90;99.90;;;;;;5053558;28;20037;-69
2023/07/26 03:13:49;;;;;;;7.82;3.58;;;13.00;99.90;;;;;;5053735;28;20124;-70
2023/07/26 03:16:17;;;;;;;5.93;3.20;;;13.00;99.90;;;;;;5053821;28;20052;-69
2023/07/26 03:18:43;;;;;;;8.32;3.83;;;12.90;99.90;;;;;;5071582;28;20133;-69
2023/07/26 03:21:09;;;;;;;6.63;3.60;;;12.90;99.90;;;;;;5071689;28;20116;-69
2023/07/26 03:23:34;;;;;;;5.65;3.03;;;12.90;99.90;;;;;;5053543;28;20649;-70
2023/07/26 03:26:03;;;;;;;5.47;3.35;;;12.70;99.90;;;;;;5071574;28;20416;-69
2023/07/26 03:28:29;;;;;;;9.50;4.03;;;12.80;99.90;;;;;;5071447;28;20563;-69
2023/07/26 03:30:54;;;;;;;10.30;4.00;;;12.90;99.90;;;;;;5071439;28;20029;-70
2023/07/26 03:33:20;;;;;;;7.30;3.75;;;12.80;99.90;;;;;;5071429;28;20040;-69
2023/07/26 03:35:46;;;;;;;4.63;3.33;;;12.80;99.90;;;;;;5071547;28;20044;-69
2023/07/26 03:38:12;;;;;;;5.88;3.72;;;12.90;99.90;;;;;;5053125;28;20052;-69
2023/07/26 03:40:39;;;;;;;5.00;3.45;;;12.80;99.90;;;;;;5074319;28;20047;-70
2023/07/26 03:43:05;;;;;;;5.13;3.05;;;12.90;99.90;;;;;;5075378;28;20522;-69
2023/07/26 03:45:30;;;;;;;11.23;4.20;;;13.00;99.90;;;;;;5075432;28;20112;-69
2023/07/26 03:47:56;;;;;;;6.20;3.67;;;12.80;99.90;;;;;;5057096;28;20499;-69
2023/07/26 03:50:22;;;;;;;5.20;3.60;;;12.80;99.90;;;;;;5075453;28;20358;-69
2023/07/26 03:52:47;;;;;;;8.43;4.10;;;12.90;99.90;;;;;;5075367;28;20444;-69
2023/07/26 03:55:14;;;;;;;8.32;3.55;;;13.00;99.90;;;;;;5057507;28;20114;-69
2023/07/26 03:57:39;;;;;;;5.78;4.00;;;12.80;99.90;;;;;;5074932;28;20514;-69
2023/07/26 04:00:06;;;;;;;7.57;4.15;;;12.80;99.90;;;;;;5075161;28;20037;-70
2023/07/26 04:02:31;;;;;;;5.88;4.00;;;12.80;99.90;;;;;;5057031;28;20032;-70
2023/07/26 04:04:57;;;;;;;5.25;3.90;;;12.90;99.90;;;;;;5074958;28;20052;-69
2023/07/26 04:07:23;;;;;;;8.48;3.85;;;12.80;99.90;;;;;;5074265;28;20044;-69
2023/07/26 04:09:49;;;;;;;6.20;3.50;;;12.90;99.90;;;;;;5074849;28;20183;-69
2023/07/26 04:12:15;;;;;;;8.50;4.03;;;12.90;99.90;;;;;;5075079;28;20584;-69
2023/07/26 04:14:40;;;;;;;8.23;3.95;;;13.00;99.90;;;;;;5074905;28;20032;-69
2023/07/26 04:17:06;;;;;;;7.07;3.80;;;13.10;99.90;;;;;;5074480;28;20040;-70
2023/07/26 04:19:32;;;;;;;7.22;4.43;;;13.00;99.90;;;;;;5056728;28;20456;-69
2023/07/26 04:21:58;;;;;;;8.43;3.85;;;12.90;99.90;;;;;;5056840;28;20036;-69
2023/07/26 04:24:24;;;;;;;5.85;3.88;;;13.10;99.90;;;;;;5074814;28;20067;-69
2023/07/26 04:26:49;;;;;;;6.68;4.50;;;13.10;99.90;;;;;;5074369;28;20075;-70
2023/07/26 04:29:15;;;;;;;5.55;3.63;;;13.10;99.90;;;;;;5074644;28;20080;-70
2023/07/26 04:31:40;;;;;;;4.78;3.40;;;13.00;99.90;;;;;;5056484;28;20507;-69
2023/07/26 04:34:06;;;;;;;6.82;4.30;;;13.00;99.90;;;;;;5074391;28;20037;-69
2023/07/26 04:36:32;;;;;;;6.20;4.30;;;13.10;99.90;;;;;;5074185;28;20040;-69
2023/07/26 04:38:57;;;;;;;8.75;4.07;;;13.10;99.90;;;;;;5074562;28;20393;-70
2023/07/26 04:41:23;;;;;;;9.40;3.75;;;12.90;99.90;;;;;;5056578;28;20569;-69
2023/07/26 04:43:48;;;;;;;9.43;3.90;;;13.10;99.90;;;;;;5056679;28;20041;-70
2023/07/26 04:46:15;;;;;;;6.32;4.22;;;12.90;99.90;;;;;;5056190;28;20649;-69
2023/07/26 04:48:41;;;;;;;5.90;3.90;;;13.20;99.90;;;;;;5074265;28;20039;-69
2023/07/26 04:51:06;;;;;;;6.78;3.95;;;13.20;99.90;;;;;;5073728;28;20395;-69
2023/07/26 04:53:32;;;;;;;9.90;4.57;;;13.00;99.90;;;;;;5056264;28;20174;-69
2023/07/26 04:55:57;;;;;;;7.35;4.18;;;13.30;99.90;;;;;;5056044;28;20036;-69
2023/07/26 04:58:23;;;;;;;10.30;4.20;;;13.10;99.90;;;;;;5056038;28;20411;-70
2023/07/26 05:00:50;;;;;;;7.25;3.88;;;13.30;99.90;;;;;;5073919;28;20393;-69
2023/07/26 05:03:15;;;;;;;8.55;3.97;;;13.10;99.90;;;;;;5074259;28;20411;-68
2023/07/26 05:05:41;;;;;;;9.27;4.47;;;13.30;99.90;;;;;;5056059;28;20037;-68
2023/07/26 05:08:07;;;;;;;7.55;3.88;;;13.30;99.90;;;;;;5055671;28;20119;-68
2023/07/26 05:10:33;;;;;;;6.78;4.35;;;13.40;99.90;;;;;;5055647;28;20047;-68
2023/07/26 05:12:59;;;;;;;8.07;4.15;;;13.30;99.90;;;;;;5073842;28;20032;-68
2023/07/26 05:15:25;;;;;;;7.97;4.57;;;13.30;99.90;;;;;;5070247;28;20037;-68
2023/07/26 05:17:51;;;;;;;7.13;4.00;;;13.50;99.90;;;;;;5071582;28;20114;-69
2023/07/26 05:20:17;;;;;;;6.22;3.80;;;14.00;99.90;;;;;;5072258;28;20044;-68
2023/07/26 05:22:43;;;;;;;6.45;3.78;;;14.30;99.90;;;;;;5073447;28;20037;-68
2023/07/26 05:25:09;;;;;;;5.15;3.38;;;14.50;99.90;;;;;;5073566;28;20044;-68
2023/07/26 05:27:34;;;;;;;7.13;3.83;;;14.60;99.90;;;;;;5073392;28;20037;-69
2023/07/26 05:30:00;;;;;;;5.50;2.83;;;14.70;99.90;;;;;;5073503;28;20101;-70
2023/07/26 05:32:26;;;;;;;6.43;2.92;;;14.70;99.90;;;;;;5073592;28;20052;-70
2023/07/26 05:34:54;;;;;;;5.00;2.53;;;15.00;99.90;;;;;;5073596;28;20045;-69
2023/07/26 05:37:20;;;;;;;4.65;3.17;;;15.20;99.90;;;;;;5071647;28;20055;-70
2023/07/26 05:39:47;;;;;;;3.85;2.17;;;15.30;99.90;;;;;;5071741;28;20044;-69
2023/07/26 05:42:13;;;;;;;4.07;2.30;;;15.60;99.90;;;;;;5063633;28;20563;-70
2023/07/26 05:44:39;;;;;;;5.25;2.53;;;15.80;99.90;;;;;;5073288;28;20052;-69
2023/07/26 05:47:05;;;;;;;4.10;2.22;;;15.60;99.90;;;;;;5073305;28;20079;-70
2023/07/26 05:49:30;;;;;;;4.32;2.33;;;15.30;99.90;;;;;;5072249;28;20067;-69
2023/07/26 05:51:56;;;;;;;4.35;2.30;;;15.10;99.90;;;;;;5073263;28;20036;-70
2023/07/26 05:54:21;;;;;;;3.80;2.20;;;14.90;99.90;;;;;;5073160;28;20054;-69
2023/07/26 05:56:47;;;;;;;5.13;2.20;;;14.90;99.90;;;;;;5054962;28;20048;-69
2023/07/26 05:59:12;;;;;;;4.18;2.13;;;14.80;99.90;;;;;;5071978;28;20051;-69
2023/07/26 06:01:38;;;;;;;6.50;2.45;;;14.70;99.90;;;;;;5072236;28;20040;-69
2023/07/26 06:04:03;;;;;;;4.10;2.30;;;14.40;99.90;;;;;;5072753;28;20503;-68
2023/07/26 06:06:29;;;;;;;4.70;2.47;;;14.40;99.90;;;;;;5072600;28;20115;-70
2023/07/26 06:08:55;;;;;;;4.82;2.58;;;14.40;99.90;;;;;;5072873;28;20068;-69
2023/07/26 06:11:20;;;;;;;4.88;1.98;;;14.30;99.90;;;;;;5071369;28;20074;-69
2023/07/26 06:13:46;;;;;;;3.33;2.05;;;14.30;99.90;;;;;;5063009;28;20419;-69
2023/07/26 06:16:11;;;;;;;3.85;1.90;;;14.20;99.90;;;;;;5072567;28;20063;-69
2023/07/26 06:18:37;;;;;;;3.63;2.30;;;14.10;99.90;;;;;;5072351;28;20434;-69
2023/07/26 06:21:03;;;;;;;4.63;2.28;;;14.10;99.90;;;;;;5072529;28;20040;-69
2023/07/26 06:23:28;;;;;;;3.67;1.88;;;14.00;99.90;;;;;;5072376;28;20182;-69
2023/07/26 06:25:54;;;;;;;4.07;2.50;;;14.10;99.90;;;;;;5072396;28;20091;-69
2023/07/26 06:28:19;;;;;;;4.22;2.85;;;14.10;99.90;;;;;;5070848;28;20044;-69
2023/07/26 06:30:45;;;;;;;3.58;1.83;;;14.30;99.90;;;;;;5072441;28;20036;-69
2023/07/26 06:33:10;;;;;;;2.85;1.90;;;14.10;99.90;;;;;;5072182;28;20406;-69
2023/07/26 06:35:36;;;;;;;5.05;1.90;;;14.20;99.90;;;;;;5071211;28;20052;-69
2023/07/26 06:38:02;;;;;;;5.10;1.70;;;14.20;99.90;;;;;;5071986;28;20044;-69
2023/07/26 06:40:28;;;;;;;3.78;1.80;;;14.20;99.90;;;;;;5070851;28;20131;-69
2023/07/26 06:42:54;;;;;;;3.05;1.83;;;14.10;99.90;;;;;;5071895;28;20044;-69
2023/07/26 06:45:19;;;;;;;3.75;1.70;;;14.30;99.90;;;;;;5072259;28;20032;-69
2023/07/26 06:47:45;;;;;;;3.63;1.90;;;14.10;99.90;;;;;;5071360;28;20047;-69
2023/07/26 06:50:10;;;;;;;4.10;1.92;;;14.10;99.90;;;;;;5064009;28;20071;-69
2023/07/26 06:52:36;;;;;;;4.13;2.00;;;14.20;99.90;;;;;;5072010;28;20047;-69
2023/07/26 06:55:02;;;;;;;3.17;1.77;;;14.40;99.90;;;;;;5071969;28;20033;-69
2023/07/26 06:57:27;;;;;;;3.20;2.40;;;14.20;99.90;;;;;;5071502;28;20388;-69
2023/07/26 06:59:53;;;;;;;4.18;1.83;;;14.50;99.90;;;;;;5070440;28;20052;-69
2023/07/26 07:02:18;;;;;;;4.10;2.03;;;14.80;99.90;;;;;;5071869;28;20037;-69
2023/07/26 07:04:44;;;;;;;2.78;1.70;;;15.30;99.90;;;;;;5071908;28;20048;-69
2023/07/26 07:07:09;;;;;;;3.47;1.85;;;16.00;99.90;;;;;;5070184;28;20036;-69
2023/07/26 07:09:35;;;;;;;4.47;1.67;;;16.60;99.90;;;;;;5071640;28;20036;-69
2023/07/26 07:12:00;;;;;;;3.03;1.90;;;16.80;99.90;;;;;;5071704;28;20044;-69
2023/07/26 07:14:26;;;;;;;3.13;1.70;;;16.70;99.90;;;;;;5071617;28;20033;-69
2023/07/26 07:16:51;;;;;;;2.90;1.77;;;17.10;99.90;;;;;;5070331;28;20043;-69
2023/07/26 07:19:17;;;;;;;6.10;1.83;;;17.20;99.90;;;;;;5071631;28;20123;-70
2023/07/26 07:21:44;;;;;;;2.40;1.30;;;17.20;99.90;;;;;;5071591;28;20036;-69
2023/07/26 07:24:09;;;;;;;4.97;1.83;;;16.70;99.90;;;;;;5071705;28;20040;-69
2023/07/26 07:26:35;;;;;;;2.25;1.60;;;16.50;99.90;;;;;;5069847;28;20045;-69
2023/07/26 07:29:00;;;;;;;2.65;1.52;;;16.40;99.90;;;;;;5071457;28;20443;-69
2023/07/26 07:31:26;;;;;;;5.95;1.42;;;16.00;99.90;;;;;;5071618;28;20044;-69
2023/07/26 07:33:51;;;;;;;2.97;1.95;;;16.00;99.90;;;;;;5071633;28;20115;-69
2023/07/26 07:36:20;;;;;;;2.60;1.70;;;15.90;99.90;;;;;;5067269;28;20036;-69
2023/07/26 07:38:46;;;;;;;3.30;1.73;;;15.80;99.90;;;;;;5063825;28;20124;-70
2023/07/26 07:41:13;;;;;;;4.13;1.75;;;15.90;99.90;;;;;;5053433;28;20041;-69
2023/07/26 07:43:39;;;;;;;2.67;1.30;;;15.90;99.90;;;;;;5053223;28;20105;-70
2023/07/26 07:46:05;;;;;;;2.90;1.88;;;15.80;99.90;;;;;;5071391;28;20496;-72
2023/07/26 07:48:31;;;;;;;2.83;1.75;;;15.80;99.90;;;;;;5036525;28;20072;-70
2023/07/26 07:50:57;;;;;;;3.58;1.88;;;15.90;99.90;;;;;;5053132;28;20098;-70
2023/07/26 07:53:26;;;;;;;3.13;2.00;;;16.00;99.90;;;;;;5053262;28;20048;-70
2023/07/26 07:55:52;;;;;;;2.58;1.85;;;16.00;99.90;;;;;;5071043;28;20058;-69
2023/07/26 07:58:17;;;;;;;2.72;1.70;;;15.70;99.90;;;;;;5053265;28;20499;-70
2023/07/26 08:00:43;;;;;;;2.45;1.90;;;15.80;99.90;;;;;;5053075;28;20466;-70
2023/07/26 08:03:09;;;;;;;3.95;1.42;;;15.90;99.90;;;;;;5053170;28;20033;-70
2023/07/26 08:05:35;;;;;;;2.15;1.50;;;16.20;99.90;;;;;;5071135;28;20041;-70
2023/07/26 08:08:01;;;;;;;1.67;1.35;;;16.70;99.90;;;;;;5053180;28;20067;-70
2023/07/26 08:10:27;;;;;;;4.07;1.95;;;17.20;99.90;;;;;;5076877;22;20041;-68
2023/07/26 08:12:52;;;;;;;2.90;1.30;;;17.60;99.90;;;;;;5071279;28;20466;-67
2023/07/26 08:15:18;;;;;;;2.50;1.60;;;17.70;99.90;;;;;;5070931;28;20037;-68
2023/07/26 08:17:44;;;;;;;2.22;1.63;;;17.90;99.90;;;;;;5070777;28;20059;-68
2023/07/26 08:20:11;;;;;;;2.17;1.60;;;18.00;99.90;;;;;;5069249;28;20123;-70
2023/07/26 08:22:37;;;;;;;3.13;1.63;;;18.00;99.90;;;;;;5070971;28;20051;-68
2023/07/26 08:25:03;;;;;;;5.10;1.50;;;18.30;99.90;;;;;;5071100;28;20029;-68
2023/07/26 08:27:29;;;;;;;4.53;1.40;;;18.20;99.90;;;;;;5074190;28;20089;-68
2023/07/26 08:29:55;;;;;;;1.67;1.30;;;18.10;99.90;;;;;;5074423;28;20392;-67
2023/07/26 08:32:20;;;;;;;2.60;1.50;;;18.20;99.90;;;;;;5074403;28;20044;-68
2023/07/26 08:34:46;;;;;;;4.95;1.92;;;18.10;99.90;;;;;;5074460;28;20044;-69
2023/07/26 08:37:11;;;;;;;1.80;1.13;;;18.10;99.90;;;;;;5074088;28;20031;-67
2023/07/26 08:39:37;;;;;;;2.33;1.13;;;18.20;99.90;;;;;;5074705;28;20040;-69
2023/07/26 08:42:03;;;;;;;3.40;1.00;;;18.00;99.90;;;;;;5074352;28;20047;-70
2023/07/26 08:44:30;;;;;;;2.17;1.40;;;18.20;99.90;;;;;;5074409;28;20036;-67
2023/07/26 08:46:57;;;;;;;1.77;0.93;;;18.50;99.90;;;;;;5074117;28;20131;-68
2023/07/26 08:49:22;;;;;;;1.70;0.80;;;18.70;99.90;;;;;;5074272;28;20039;-66
2023/07/26 08:51:48;;;;;;;2.70;1.10;;;18.80;99.90;;;;;;5074137;28;20036;-67
2023/07/26 08:54:14;;;;;;;2.20;1.30;;;19.00;99.90;;;;;;5074346;28;20404;-67
2023/07/26 08:56:40;;;;;;;2.22;1.20;;;19.20;99.90;;;;;;5073972;28;20041;-67
2023/07/26 08:59:07;;;;;;;3.42;1.20;;;19.20;99.90;;;;;;5074194;28;20098;-67
2023/07/26 09:01:33;;;;;;;1.15;0.68;;;19.50;99.90;;;;;;5073976;28;20060;-67
2023/07/26 09:03:58;;;;;;;2.58;0.88;;;19.80;99.90;;;;;;5073913;28;20040;-70
2023/07/26 09:06:24;;;;;;;1.80;1.10;;;20.00;99.90;;;;;;5073539;28;20032;-67
2023/07/26 09:08:52;;;;;;;2.03;1.10;;;20.00;99.90;;;;;;5074077;28;20033;-70
2023/07/26 09:11:23;;;;;;;1.95;1.20;;;20.10;99.90;;;;;;5073778;28;20163;-69
2023/07/26 09:13:56;;;;;;;1.98;1.10;;;20.40;99.90;;;;;;5073849;28;20062;-68
2023/07/26 09:16:22;;;;;;;2.20;1.60;;;20.00;99.90;;;;;;5073495;28;20514;-70
2023/07/26 09:19:01;;;;;;;2.78;1.60;;;19.60;99.90;;;;;;5073686;28;20036;-68
2023/07/26 09:21:33;;;;;;;2.42;1.20;;;19.60;99.90;;;;;;5073914;28;20049;-68
2023/07/26 09:24:00;;;;;;;2.40;1.70;;;19.60;99.90;;;;;;5072377;28;20053;-67
2023/07/26 09:26:50;;;;;;;2.35;1.52;;;19.70;99.90;;;;;;5073152;28;20044;-68
2023/07/26 09:29:15;;;;;;;2.67;1.23;;;19.50;99.90;;;;;;5073401;28;20480;-68
2023/07/26 09:31:43;;;;;;;5.45;1.35;;;19.70;99.90;;;;;;5073623;28;20043;-67
2023/07/26 09:34:12;;;;;;;2.55;1.92;;;19.90;99.90;;;;;;5073654;28;20044;-68
2023/07/26 09:36:45;;;;;;;2.80;1.60;;;19.70;99.90;;;;;;5073033;28;20040;-69
2023/07/26 09:39:12;;;;;;;2.30;1.40;;;19.90;99.90;;;;;;5073425;28;20036;-68
2023/07/26 09:41:38;;;;;;;2.45;1.35;;;19.80;99.90;;;;;;5073135;28;20090;-69
2023/07/26 09:44:05;;;;;;;2.28;1.20;;;19.80;99.90;;;;;;5071957;28;20515;-69
2023/07/26 09:46:52;;;;;;;4.13;1.75;;;19.80;99.90;;;;;;5073094;28;20449;-69
2023/07/26 09:49:23;;;;;;;2.53;1.50;;;19.50;99.90;;;;;;5073308;28;20036;-69
2023/07/26 09:51:54;;;;;;;2.50;1.42;;;19.70;99.90;;;;;;5073096;28;20036;-69
2023/07/26 09:54:30;;;;;;;2.47;1.35;;;19.60;99.90;;;;;;5073021;28;20416;-68
2023/07/26 09:56:57;;;;;;;2.60;1.30;;;19.60;99.90;;;;;;5072864;28;20095;-69
2023/07/26 09:59:25;;;;;;;2.53;1.52;;;19.40;99.90;;;;;;5072424;28;20541;-69
2023/07/26 10:01:52;;;;;;;3.08;1.40;;;19.10;99.90;;;;;;5072442;28;20044;-68
2023/07/26 10:04:25;;;;;;;2.78;1.30;;;19.30;99.90;;;;;;5072320;28;20545;-69
2023/07/26 10:06:54;;;;;;;2.92;1.45;;;19.30;99.90;;;;;;5070788;28;20047;-68
2023/07/26 10:09:23;;;;;;;2.55;1.70;;;19.30;99.90;;;;;;5070327;28;20040;-69
2023/07/26 10:11:50;;;;;;;2.90;1.77;;;19.50;99.90;;;;;;5072438;28;20419;-69
2023/07/26 10:14:19;;;;;;;2.00;1.23;;;19.40;99.90;;;;;;5071371;28;20041;-68
2023/07/26 10:16:45;;;;;;;1.63;1.25;;;19.10;99.90;;;;;;5072414;28;20048;-68
2023/07/26 10:19:13;;;;;;;1.83;1.40;;;18.80;99.90;;;;;;5072518;28;20112;-69
2023/07/26 10:21:40;;;;;;;3.03;1.73;;;18.60;99.90;;;;;;5072620;28;20043;-69
2023/07/26 10:24:07;;;;;;;4.30;1.55;;;18.30;99.90;;;;;;5072588;28;20040;-69
2023/07/26 10:26:35;;;;;;;3.42;1.70;;;18.10;99.90;;;;;;5072215;28;20040;-69
2023/07/26 10:29:02;;;;;;;3.58;2.22;;;18.30;99.90;;;;;;5072478;28;20039;-69
2023/07/26 10:31:31;;;;;;;4.05;2.10;;;18.40;99.90;;;;;;5072291;28;20044;-69
2023/07/26 10:33:58;;;;;;;3.75;2.08;;;18.60;99.90;;;;;;5072526;28;20050;-69
2023/07/26 10:36:31;;;;;;;3.40;1.92;;;18.60;99.90;;;;;;5072000;28;20512;-69
2023/07/26 10:39:03;;;;;;;3.25;1.70;;;18.80;99.90;;;;;;5072301;28;20047;-69
2023/07/26 10:41:29;;;;;;;3.40;2.28;;;18.90;99.90;;;;;;5072162;28;20076;-69
2023/07/26 10:44:02;;;;;;;2.75;1.85;;;19.10;99.90;;;;;;5070852;28;20075;-70
2023/07/26 10:46:28;;;;;;;2.67;2.05;;;19.10;99.90;;;;;;5072015;28;20042;-69
2023/07/26 10:48:53;;;;;;;3.53;2.13;;;19.20;99.90;;;;;;5071920;28;20040;-70
2023/07/26 10:51:23;;;;;;;2.60;1.85;;;19.40;99.90;;;;;;5092332;28;20035;-70
2023/07/26 10:53:49;;;;;;;2.53;1.50;;;19.30;99.90;;;;;;5092158;28;20093;-70
2023/07/26 10:56:21;;;;;;;3.72;1.80;;;19.30;99.90;;;;;;5073960;28;20044;-69
2023/07/26 10:59:17;;;;;;;2.92;1.63;;;19.40;99.90;;;;;;5092012;28;20392;-69
2023/07/26 11:01:44;;;;;;;2.03;1.33;;;19.20;99.90;;;;;;5073663;28;20097;-69
2023/07/26 11:04:18;;;;;;;2.47;1.20;;;19.30;99.90;;;;;;5090918;28;20115;-69
2023/07/26 11:06:58;;;;;;;1.60;0.77;;;19.40;99.90;;;;;;5091774;28;20028;-70
2023/07/26 11:09:32;;;;;;;2.53;1.08;;;19.40;99.90;;;;;;5091056;28;20036;-69
2023/07/26 11:12:03;;;;;;;2.20;1.33;;;19.50;99.90;;;;;;5091813;28;20040;-69
2023/07/26 11:14:31;;;;;;;2.63;1.38;;;19.50;99.90;;;;;;5091993;28;20046;-70
2023/07/26 11:16:59;;;;;;;2.10;1.15;;;19.50;99.90;;;;;;5091687;28;20096;-69
2023/07/26 11:19:27;;;;;;;3.88;1.70;;;19.50;99.90;;;;;;5090838;28;20411;-70
2023/07/26 11:22:01;;;;;;;1.73;1.17;;;19.50;99.90;;;;;;5090428;28;20043;-70
2023/07/26 11:24:27;;;;;;;4.43;1.52;;;19.40;99.90;;;;;;5092015;28;20044;-69
2023/07/26 11:26:53;;;;;;;2.67;0.55;;;19.30;99.90;;;;;;5091618;28;20089;-69
2023/07/26 11:29:20;;;;;;;0.90;0.55;;;18.80;99.90;;;;;;5091870;28;20040;-69
2023/07/26 11:31:48;;;;;;;2.92;0.82;;;18.20;99.90;;;;;;5091637;28;20162;-69
2023/07/26 11:34:19;;;;;;;3.60;0.80;;;17.60;99.90;;;;;;5091689;28;20068;-68
2023/07/26 11:36:45;;;;;;;1.23;0.60;;;17.00;99.90;;;;;;5091641;28;20036;-68
2023/07/26 11:39:21;;;;;;;2.03;0.88;;;16.70;99.90;;;;;;5091764;28;20170;-68
2023/07/26 11:41:47;;;;;;;2.97;0.82;;;16.20;99.90;;;;;;5091624;28;20044;-69
2023/07/26 11:44:14;;;;;;;3.47;0.88;;;16.20;99.90;;;;;;5091654;28;20089;-68
2023/07/26 11:46:43;;;;;;;3.95;0.95;;;16.10;99.90;;;;;;5091305;28;20399;-68
2023/07/26 11:49:10;;;;;;;1.40;0.60;;;15.80;99.90;;;;;;5091816;28;20028;-68
2023/07/26 11:51:36;;;;;;;1.65;0.60;;;15.90;99.90;;;;;;5090435;28;20040;-68
2023/07/26 11:54:02;;;;;;;2.20;0.93;;;15.80;99.90;;;;;;5091630;28;20115;-68
2023/07/26 11:56:33;;;;;;;1.80;0.60;;;15.50;99.90;;;;;;5091234;28;20111;-68
2023/07/26 11:58:59;;;;;;;1.55;0.73;;;15.50;99.90;;;;;;5091605;28;20096;-69
2023/07/26 12:01:26;;;;;;;1.35;0.80;;;15.50;99.90;;;;;;5093907;28;20081;-68
2023/07/26 12:03:51;;;;;;;1.95;0.75;;;15.80;99.90;;;;;;5095375;28;20039;-70
2023/07/26 12:06:19;;;;;;;3.78;1.10;;;15.70;99.90;;;;;;5095378;28;20040;-70
2023/07/26 12:08:47;;;;;;;1.58;0.80;;;15.90;99.90;;;;;;5095471;28;20044;-70
2023/07/26 12:11:17;;;;;;;1.45;0.88;;;16.00;99.90;;;;;;5087967;28;20029;-70
2023/07/26 12:13:44;;;;;;;1.55;1.00;;;16.00;99.90;;;;;;5053681;28;20044;-70
2023/07/26 12:16:09;;;;;;;1.60;0.98;;;16.00;99.90;;;;;;5053749;28;20106;-69
2023/07/26 12:18:35;;;;;;;1.98;0.90;;;16.00;99.90;;;;;;5053489;28;20420;-69
2023/07/26 12:21:06;;;;;;;1.20;0.80;;;16.00;99.90;;;;;;5054820;28;20041;-70
2023/07/26 12:23:51;;;;;;;3.33;1.98;;;15.80;99.90;;;;;;5054786;28;20087;-69
2023/07/26 12:26:19;;;;;;;3.53;1.27;;;16.10;99.90;;;;;;5053345;28;20040;-69
2023/07/26 12:28:44;;;;;;;1.80;1.20;;;16.00;99.90;;;;;;5068214;28;20035;-69
2023/07/26 12:31:27;;;;;;;3.05;1.20;;;16.10;99.90;;;;;;5074237;28;20036;-70
2023/07/26 12:34:03;;;;;;;2.42;1.20;;;16.40;99.90;;;;;;5071823;28;20038;-69
2023/07/26 12:36:38;;;;;;;2.85;1.67;;;16.60;99.90;;;;;;5072859;28;20119;-69
2023/07/26 12:39:07;;;;;;;3.10;1.35;;;16.50;99.90;;;;;;5068952;28;20522;-69
2023/07/26 12:41:40;;;;;;;1.95;1.25;;;17.00;99.90;;;;;;5075340;28;20048;-70
2023/07/26 12:44:07;;;;;;;2.85;1.50;;;17.00;99.90;;;;;;5073654;28;20102;-69